Time;durP1;ratioP1;P1;durP2;ratioP2;P2;SDS_P1;SDS_P2;PMS_P1;PMS_P2;Temp;Humidity;BMP_temperature;BMP_pressure;BME280_temperature;BME280_humidity;BME280_pressure;Samples;Min_cycle;Max_cycle;Signal;HPM_P1;HPM_P2
2021/08/18 00:00:21;;;;;;;22.15;14.15;;;15.60;93.20;;;;;;5081979;28;20466;-71
2021/08/18 00:02:55;;;;;;;18.70;14.40;;;15.60;94.40;;;;;;5091105;28;20381;-71
2021/08/18 00:05:23;;;;;;;17.90;13.25;;;15.60;95.10;;;;;;5091046;28;20382;-71
2021/08/18 00:07:51;;;;;;;17.52;12.55;;;15.60;93.70;;;;;;5090803;28;20507;-71
2021/08/18 00:10:17;;;;;;;17.52;13.00;;;15.60;93.70;;;;;;5090996;28;20410;-71
2021/08/18 00:12:46;;;;;;;17.33;13.10;;;15.60;94.30;;;;;;5090847;28;20389;-71
2021/08/18 00:15:18;;;;;;;21.70;14.70;;;15.60;94.70;;;;;;5090819;28;20386;-71
2021/08/18 00:17:45;;;;;;;22.70;13.70;;;15.50;95.50;;;;;;5090628;28;20398;-71
2021/08/18 00:20:14;;;;;;;18.05;13.05;;;15.60;96.10;;;;;;5090844;28;20374;-71
2021/08/18 00:22:42;;;;;;;18.55;13.02;;;15.60;96.40;;;;;;5090705;28;20378;-71
2021/08/18 00:25:11;;;;;;;13.18;10.82;;;15.60;95.40;;;;;;5090834;28;20377;-71
2021/08/18 00:27:42;;;;;;;14.95;10.90;;;15.60;93.50;;;;;;5090556;28;20386;-71
2021/08/18 00:30:08;;;;;;;17.77;11.82;;;15.60;95.10;;;;;;5093233;22;20451;-76
2021/08/18 00:32:33;;;;;;;18.27;11.40;;;15.60;94.90;;;;;;5070666;28;20384;-76
2021/08/18 00:34:59;;;;;;;17.07;11.70;;;15.60;96.40;;;;;;5070600;28;20376;-76
2021/08/18 00:37:24;;;;;;;16.00;11.80;;;15.60;96.30;;;;;;5070800;28;20824;-75
2021/08/18 00:39:50;;;;;;;15.00;11.80;;;15.70;95.20;;;;;;5069787;28;20383;-76
2021/08/18 00:42:21;;;;;;;14.50;11.23;;;15.60;96.20;;;;;;5071298;28;20391;-77
2021/08/18 00:44:46;;;;;;;16.53;11.90;;;15.60;96.70;;;;;;5076228;28;20390;-79
2021/08/18 00:47:12;;;;;;;16.50;12.20;;;15.60;96.20;;;;;;5076843;28;20876;-77
2021/08/18 00:49:38;;;;;;;17.37;12.90;;;15.60;95.90;;;;;;5080037;28;20414;-78
2021/08/18 00:52:05;;;;;;;16.63;12.57;;;15.60;96.30;;;;;;5080297;28;20409;-77
2021/08/18 00:54:30;;;;;;;16.27;12.82;;;15.60;96.50;;;;;;5071338;28;20385;-77
2021/08/18 00:56:57;;;;;;;18.50;13.20;;;15.70;96.30;;;;;;5056557;28;20893;-78
2021/08/18 00:59:25;;;;;;;20.20;14.00;;;15.60;95.90;;;;;;5059114;28;20394;-77
2021/08/18 01:01:50;;;;;;;21.35;15.57;;;15.60;96.60;;;;;;5076990;28;20376;-77
2021/08/18 01:04:16;;;;;;;22.90;15.70;;;15.70;96.50;;;;;;5074489;28;20721;-78
2021/08/18 01:06:44;;;;;;;27.85;17.33;;;15.60;97.10;;;;;;5074972;28;20729;-77
2021/08/18 01:09:11;;;;;;;23.83;16.45;;;15.70;96.10;;;;;;5079578;28;20391;-77
2021/08/18 01:11:41;;;;;;;25.08;16.55;;;15.80;93.70;;;;;;5077449;28;20781;-77
2021/08/18 01:14:08;;;;;;;28.30;17.05;;;15.70;95.30;;;;;;5076841;28;20448;-77
2021/08/18 01:16:39;;;;;;;26.77;17.30;;;15.80;94.50;;;;;;5077205;28;20396;-77
2021/08/18 01:19:06;;;;;;;27.75;19.13;;;15.70;94.40;;;;;;5083268;28;20383;-78
2021/08/18 01:21:38;;;;;;;28.15;18.90;;;15.70;93.30;;;;;;5079977;28;20386;-77
2021/08/18 01:24:05;;;;;;;27.23;18.98;;;15.70;92.80;;;;;;5074008;28;20384;-77
2021/08/18 01:26:32;;;;;;;25.47;18.60;;;15.80;93.40;;;;;;5074836;28;20439;-77
2021/08/18 01:28:59;;;;;;;29.13;20.00;;;15.80;92.50;;;;;;5073322;28;20463;-77
2021/08/18 01:31:24;;;;;;;30.70;20.02;;;15.80;92.80;;;;;;5074833;28;20391;-77
2021/08/18 01:33:50;;;;;;;27.95;19.30;;;15.70;93.20;;;;;;5073444;28;20384;-77
2021/08/18 01:36:16;;;;;;;30.75;21.13;;;15.80;93.50;;;;;;5074689;28;20426;-77
2021/08/18 01:38:41;;;;;;;29.58;20.83;;;15.80;93.80;;;;;;5073290;28;20570;-77
2021/08/18 01:41:08;;;;;;;27.33;20.43;;;15.80;91.80;;;;;;5075045;28;20429;-77
2021/08/18 01:43:34;;;;;;;27.65;19.45;;;15.80;91.20;;;;;;5077051;28;20380;-77
2021/08/18 01:46:00;;;;;;;30.38;20.58;;;15.80;90.70;;;;;;5077334;28;20392;-77
2021/08/18 01:48:29;;;;;;;29.10;20.65;;;15.90;90.70;;;;;;5074601;28;20375;-77
2021/08/18 01:50:56;;;;;;;32.00;20.97;;;15.80;91.60;;;;;;5077993;28;20415;-76
2021/08/18 01:53:33;;;;;;;34.53;20.23;;;15.80;91.50;;;;;;5076562;28;20387;-77
2021/08/18 01:56:02;;;;;;;30.58;20.83;;;15.80;90.60;;;;;;5077444;28;20428;-77
2021/08/18 01:58:29;;;;;;;30.08;19.48;;;15.80;90.40;;;;;;5077646;28;20396;-77
2021/08/18 02:00:55;;;;;;;29.40;20.40;;;15.80;90.20;;;;;;5075074;28;20741;-76
2021/08/18 02:03:21;;;;;;;31.40;20.20;;;15.80;91.80;;;;;;5076833;28;20475;-77
2021/08/18 02:05:47;;;;;;;28.73;19.70;;;15.80;91.70;;;;;;5075580;28;20512;-77
2021/08/18 02:08:12;;;;;;;29.37;19.70;;;15.80;90.80;;;;;;5075827;28;20380;-77
2021/08/18 02:10:38;;;;;;;26.38;19.40;;;15.80;90.40;;;;;;5075427;28;20832;-77
2021/08/18 02:13:04;;;;;;;26.67;19.10;;;15.80;90.60;;;;;;5076562;28;20404;-78
2021/08/18 02:15:32;;;;;;;30.40;19.00;;;15.80;90.50;;;;;;5075987;28;20371;-77
2021/08/18 02:17:59;;;;;;;29.77;19.98;;;15.80;90.80;;;;;;5076555;28;20409;-77
2021/08/18 02:20:28;;;;;;;32.25;18.75;;;15.80;91.80;;;;;;5074618;28;20384;-76
2021/08/18 02:22:55;;;;;;;26.80;18.00;;;15.90;90.70;;;;;;5075614;28;20387;-77
2021/08/18 02:25:21;;;;;;;25.45;17.88;;;15.80;90.10;;;;;;5079145;28;20525;-77
2021/08/18 02:27:47;;;;;;;26.88;18.08;;;15.90;88.90;;;;;;5075369;28;20395;-77
2021/08/18 02:30:16;;;;;;;25.23;18.42;;;15.90;88.80;;;;;;5073509;28;20403;-77
2021/08/18 02:32:42;;;;;;;28.25;18.77;;;15.90;89.00;;;;;;5071878;28;20386;-77
2021/08/18 02:35:08;;;;;;;23.37;17.03;;;15.90;89.50;;;;;;5073514;28;20388;-77
2021/08/18 02:37:34;;;;;;;25.58;17.67;;;15.90;89.30;;;;;;5072696;28;20403;-77
2021/08/18 02:40:00;;;;;;;25.25;17.02;;;15.90;88.60;;;;;;5076394;28;20412;-77
2021/08/18 02:42:25;;;;;;;28.37;17.67;;;15.90;88.30;;;;;;5079052;28;20383;-76
2021/08/18 02:44:51;;;;;;;23.97;17.90;;;15.80;89.00;;;;;;5074085;28;20372;-76
2021/08/18 02:47:17;;;;;;;25.97;18.17;;;15.80;89.90;;;;;;5076449;28;20899;-76
2021/08/18 02:49:43;;;;;;;26.30;18.30;;;15.80;89.40;;;;;;5078604;28;20395;-77
2021/08/18 02:52:09;;;;;;;25.87;17.80;;;15.80;90.40;;;;;;5075796;28;20537;-77
2021/08/18 02:54:35;;;;;;;27.00;19.48;;;15.80;90.00;;;;;;5073445;28;20911;-76
2021/08/18 02:57:00;;;;;;;28.65;19.65;;;15.80;89.50;;;;;;5072589;28;20403;-74
2021/08/18 02:59:26;;;;;;;27.90;19.95;;;15.80;89.20;;;;;;5072732;28;20811;-77
2021/08/18 03:01:52;;;;;;;31.97;21.03;;;15.80;89.90;;;;;;5072370;28;20384;-77
2021/08/18 03:04:17;;;;;;;29.00;19.77;;;15.80;89.70;;;;;;5072524;28;20669;-77
2021/08/18 03:06:43;;;;;;;30.20;19.97;;;15.90;89.00;;;;;;5072111;28;20387;-77
2021/08/18 03:09:09;;;;;;;28.90;20.00;;;15.80;90.30;;;;;;5070626;28;20903;-77
2021/08/18 03:11:34;;;;;;;34.70;21.80;;;15.90;90.60;;;;;;5071146;28;20384;-75
2021/08/18 03:14:00;;;;;;;31.43;22.60;;;15.90;90.80;;;;;;5072276;28;20767;-76
2021/08/18 03:16:26;;;;;;;31.38;21.25;;;15.90;89.80;;;;;;5071814;28;20395;-76
2021/08/18 03:18:51;;;;;;;34.88;22.35;;;16.00;89.60;;;;;;5071813;28;20471;-76
2021/08/18 03:21:17;;;;;;;34.70;22.70;;;15.90;89.90;;;;;;5072174;28;20445;-76
2021/08/18 03:23:43;;;;;;;37.38;23.83;;;15.90;89.50;;;;;;5071576;28;20408;-75
2021/08/18 03:26:09;;;;;;;39.65;25.35;;;15.90;89.20;;;;;;5071885;28;20398;-76
2021/08/18 03:28:34;;;;;;;35.20;25.37;;;15.90;88.80;;;;;;5071564;28;20902;-77
2021/08/18 03:31:00;;;;;;;36.97;24.50;;;15.90;89.70;;;;;;5071716;28;20490;-75
2021/08/18 03:33:26;;;;;;;37.15;25.38;;;15.90;89.60;;;;;;5071726;28;20486;-76
2021/08/18 03:35:51;;;;;;;38.40;25.23;;;15.90;89.30;;;;;;5071787;28;20388;-75
2021/08/18 03:38:17;;;;;;;38.70;26.00;;;16.00;88.50;;;;;;5070119;28;20383;-76
2021/08/18 03:40:44;;;;;;;37.40;25.60;;;16.00;88.20;;;;;;5071628;28;20470;-76
2021/08/18 03:43:09;;;;;;;38.07;25.97;;;16.00;88.90;;;;;;5070268;28;20475;-77
2021/08/18 03:45:35;;;;;;;41.43;25.90;;;16.00;88.60;;;;;;5071464;28;20732;-76
2021/08/18 03:48:00;;;;;;;38.17;26.13;;;15.90;88.60;;;;;;5071236;28;20418;-76
2021/08/18 03:50:26;;;;;;;40.33;26.10;;;15.90;89.90;;;;;;5070037;28;20380;-77
2021/08/18 03:52:52;;;;;;;41.35;26.15;;;15.90;89.50;;;;;;5071384;28;20904;-76
2021/08/18 03:55:17;;;;;;;36.28;25.02;;;16.00;88.70;;;;;;5055972;28;20381;-76
2021/08/18 03:57:43;;;;;;;36.37;24.70;;;16.00;88.70;;;;;;5052022;28;20460;-76
2021/08/18 04:00:09;;;;;;;39.17;25.80;;;16.00;89.00;;;;;;5062494;28;20395;-76
2021/08/18 04:02:36;;;;;;;40.35;26.60;;;16.00;89.90;;;;;;5071325;28;20430;-76
2021/08/18 04:05:02;;;;;;;38.85;25.40;;;16.00;88.90;;;;;;5071209;28;20459;-76
2021/08/18 04:07:28;;;;;;;42.23;25.27;;;16.00;88.90;;;;;;5071321;28;20903;-76
2021/08/18 04:09:53;;;;;;;40.70;26.33;;;16.00;88.90;;;;;;5069737;28;20395;-75
2021/08/18 04:12:19;;;;;;;40.37;26.40;;;16.00;88.80;;;;;;5071368;28;20379;-77
2021/08/18 04:14:45;;;;;;;38.30;25.45;;;16.10;88.60;;;;;;5069981;28;20391;-77
2021/08/18 04:17:10;;;;;;;38.58;25.83;;;16.00;89.60;;;;;;5069758;28;20903;-76
2021/08/18 04:19:36;;;;;;;40.90;25.77;;;16.10;88.80;;;;;;5071590;28;20383;-78
2021/08/18 04:22:04;;;;;;;40.33;26.65;;;16.00;89.90;;;;;;5071462;28;20763;-77
2021/08/18 04:24:29;;;;;;;39.58;26.38;;;16.00;91.30;;;;;;5069589;28;20744;-76
2021/08/18 04:26:55;;;;;;;41.53;24.53;;;16.00;91.30;;;;;;5070592;28;20376;-76
2021/08/18 04:29:20;;;;;;;42.93;25.40;;;16.10;89.30;;;;;;5070512;28;20410;-77
2021/08/18 04:31:46;;;;;;;40.90;25.33;;;16.00;90.60;;;;;;5069774;28;20486;-76
2021/08/18 04:34:12;;;;;;;37.23;25.13;;;16.10;90.60;;;;;;5072940;28;20464;-77
2021/08/18 04:36:38;;;;;;;35.60;24.02;;;16.20;87.80;;;;;;5070071;28;20764;-78
2021/08/18 04:39:04;;;;;;;37.90;25.20;;;16.10;88.60;;;;;;5070385;28;20387;-76
2021/08/18 04:41:29;;;;;;;36.67;24.90;;;16.10;88.90;;;;;;5070752;28;20460;-76
2021/08/18 04:43:55;;;;;;;42.50;24.40;;;16.20;88.80;;;;;;5071043;28;20383;-75
2021/08/18 04:46:20;;;;;;;38.13;24.57;;;16.20;87.10;;;;;;5070640;28;20467;-76
2021/08/18 04:48:46;;;;;;;37.83;25.27;;;16.20;87.90;;;;;;5070458;28;20768;-76
2021/08/18 04:51:11;;;;;;;42.25;26.90;;;16.10;89.70;;;;;;5071207;28;20387;-78
2021/08/18 04:53:37;;;;;;;39.40;26.00;;;16.10;89.90;;;;;;5072383;28;20396;-76
2021/08/18 04:56:03;;;;;;;42.17;26.27;;;16.10;91.20;;;;;;5053428;28;20416;-77
2021/08/18 04:58:29;;;;;;;40.17;27.13;;;16.10;89.10;;;;;;5054297;28;20474;-79
2021/08/18 05:00:55;;;;;;;41.53;27.00;;;16.20;89.20;;;;;;5066822;28;20376;-78
2021/08/18 05:03:21;;;;;;;47.17;28.00;;;16.20;86.60;;;;;;5069501;28;20782;-77
2021/08/18 05:05:46;;;;;;;43.15;27.50;;;16.20;86.40;;;;;;5069176;28;20474;-77
2021/08/18 05:08:12;;;;;;;41.03;26.65;;;16.30;86.90;;;;;;5069938;28;20466;-77
2021/08/18 05:10:38;;;;;;;44.07;28.70;;;16.20;87.50;;;;;;5070305;28;20376;-77
2021/08/18 05:13:04;;;;;;;43.30;28.50;;;16.20;88.70;;;;;;5070281;28;20415;-76
2021/08/18 05:15:30;;;;;;;50.47;28.05;;;16.30;87.40;;;;;;5071732;28;20376;-77
2021/08/18 05:17:56;;;;;;;38.20;26.10;;;16.30;85.70;;;;;;5071640;28;20399;-75
2021/08/18 05:20:22;;;;;;;44.83;28.30;;;16.50;83.70;;;;;;5070101;28;20413;-75
2021/08/18 05:22:49;;;;;;;47.17;28.25;;;16.50;83.10;;;;;;5070248;28;20382;-78
2021/08/18 05:25:16;;;;;;;47.67;28.75;;;16.50;83.70;;;;;;5070322;28;20433;-77
2021/08/18 05:27:42;;;;;;;44.07;27.90;;;16.50;82.10;;;;;;5069854;28;20821;-77
2021/08/18 05:30:10;;;;;;;47.67;30.00;;;16.50;83.10;;;;;;5070311;28;20801;-77
2021/08/18 05:32:37;;;;;;;44.47;28.80;;;16.60;81.20;;;;;;5069408;28;20387;-76
2021/08/18 05:35:04;;;;;;;44.17;28.25;;;16.60;81.60;;;;;;5068655;28;20426;-77
2021/08/18 05:37:29;;;;;;;46.85;29.15;;;16.70;79.80;;;;;;5069483;28;20411;-76
2021/08/18 05:39:55;;;;;;;48.00;29.02;;;16.70;82.00;;;;;;5070056;28;20376;-77
2021/08/18 05:42:20;;;;;;;45.97;28.63;;;16.60;80.90;;;;;;5070344;28;20386;-76
2021/08/18 05:44:46;;;;;;;42.83;28.70;;;16.70;80.20;;;;;;5069990;28;20383;-77
2021/08/18 05:47:12;;;;;;;42.42;28.27;;;16.80;79.50;;;;;;5071857;28;20652;-78
2021/08/18 05:49:37;;;;;;;42.80;28.27;;;16.80;78.00;;;;;;5068492;28;20423;-76
2021/08/18 05:52:04;;;;;;;42.28;28.95;;;16.90;76.40;;;;;;5072505;28;20411;-79
2021/08/18 05:54:29;;;;;;;43.97;29.00;;;17.00;76.80;;;;;;5064646;28;20820;-77
2021/08/18 05:56:55;;;;;;;40.75;27.38;;;17.00;75.30;;;;;;5054889;28;20488;-76
2021/08/18 05:59:20;;;;;;;40.60;27.42;;;17.10;73.40;;;;;;5056793;28;20385;-75
2021/08/18 06:01:46;;;;;;;44.37;29.63;;;17.10;73.20;;;;;;5072785;28;20418;-75
2021/08/18 06:04:12;;;;;;;46.40;28.67;;;17.00;74.30;;;;;;5073690;28;20386;-77
2021/08/18 06:06:37;;;;;;;45.13;28.63;;;17.20;74.00;;;;;;5073839;28;20872;-77
2021/08/18 06:09:03;;;;;;;42.83;28.80;;;17.10;75.10;;;;;;5071766;28;20565;-77
2021/08/18 06:11:29;;;;;;;44.50;30.58;;;17.10;75.70;;;;;;5071744;28;20395;-76
2021/08/18 06:13:54;;;;;;;44.58;29.33;;;17.10;75.30;;;;;;5073516;28;20379;-78
2021/08/18 06:16:20;;;;;;;44.80;28.77;;;17.10;75.00;;;;;;5072928;28;20403;-77
2021/08/18 06:18:47;;;;;;;48.45;30.77;;;17.20;72.70;;;;;;5072957;28;20740;-77
2021/08/18 06:21:12;;;;;;;44.97;30.30;;;17.10;72.60;;;;;;5074059;28;20751;-76
2021/08/18 06:23:38;;;;;;;46.13;29.77;;;17.10;75.50;;;;;;5073121;28;20384;-78
2021/08/18 06:26:03;;;;;;;44.60;28.83;;;17.10;73.40;;;;;;5073153;28;20403;-78
2021/08/18 06:28:29;;;;;;;45.65;29.40;;;17.20;71.40;;;;;;5072729;28;20460;-77
2021/08/18 06:30:54;;;;;;;47.60;29.30;;;17.20;71.40;;;;;;5074223;28;20479;-77
2021/08/18 06:33:20;;;;;;;44.27;28.27;;;17.10;73.40;;;;;;5072254;28;20392;-77
2021/08/18 06:35:46;;;;;;;43.07;29.10;;;17.20;72.30;;;;;;5072464;28;20395;-78
2021/08/18 06:38:11;;;;;;;45.22;29.42;;;17.20;71.20;;;;;;5072487;28;20387;-78
2021/08/18 06:40:38;;;;;;;43.58;28.98;;;17.40;70.50;;;;;;5072159;28;20396;-76
2021/08/18 06:43:03;;;;;;;42.13;29.55;;;17.70;69.90;;;;;;5072575;28;20402;-76
2021/08/18 06:45:29;;;;;;;40.65;28.85;;;17.90;63.70;;;;;;5073354;28;20415;-76
2021/08/18 06:47:55;;;;;;;42.08;28.88;;;17.80;63.50;;;;;;5071875;28;20491;-75
2021/08/18 06:50:21;;;;;;;44.42;28.67;;;17.80;65.80;;;;;;5072566;28;20400;-77
2021/08/18 06:52:46;;;;;;;43.88;29.25;;;17.80;64.30;;;;;;5072034;28;20456;-76
2021/08/18 06:55:12;;;;;;;45.38;28.45;;;17.80;63.50;;;;;;5057889;28;20385;-75
2021/08/18 06:57:38;;;;;;;41.47;27.55;;;17.90;62.40;;;;;;5060088;28;21030;-75
2021/08/18 07:00:05;;;;;;;41.30;27.80;;;18.00;59.70;;;;;;5072315;28;20442;-75
2021/08/18 07:02:30;;;;;;;44.80;29.20;;;18.00;61.10;;;;;;5071778;28;20376;-76
2021/08/18 07:04:56;;;;;;;42.60;28.10;;;18.00;61.40;;;;;;5071967;28;20738;-76
2021/08/18 07:07:21;;;;;;;41.13;28.87;;;18.10;60.80;;;;;;5071040;28;20392;-75
2021/08/18 07:09:47;;;;;;;37.97;27.42;;;18.20;60.20;;;;;;5071947;28;20392;-76
2021/08/18 07:12:12;;;;;;;45.70;27.15;;;18.30;58.00;;;;;;5072639;28;20382;-76
2021/08/18 07:14:38;;;;;;;39.10;26.73;;;18.40;56.20;;;;;;5087361;28;20470;-77
2021/08/18 07:17:06;;;;;;;41.37;27.30;;;18.40;56.60;;;;;;5072416;28;20399;-74
2021/08/18 07:19:32;;;;;;;42.38;27.23;;;18.40;56.40;;;;;;5071928;28;20425;-77
2021/08/18 07:21:58;;;;;;;40.43;26.97;;;18.50;56.30;;;;;;5072214;28;20983;-77
2021/08/18 07:24:24;;;;;;;39.33;28.30;;;18.60;56.30;;;;;;5072095;28;20383;-77
2021/08/18 07:26:50;;;;;;;38.28;27.42;;;18.80;54.20;;;;;;5071013;28;20392;-76
2021/08/18 07:29:28;;;;;;;37.58;26.08;;;18.80;53.40;;;;;;5070406;28;20387;-76
2021/08/18 07:32:00;;;;;;;41.95;28.95;;;18.90;52.70;;;;;;5072386;28;20431;-76
2021/08/18 07:34:26;;;;;;;42.75;26.92;;;18.90;54.00;;;;;;5071161;28;20394;-77
2021/08/18 07:36:55;;;;;;;42.23;28.10;;;19.00;51.90;;;;;;5072140;28;20490;-76
2021/08/18 07:39:20;;;;;;;40.17;27.15;;;19.10;50.70;;;;;;5058744;28;20884;-75
2021/08/18 07:41:52;;;;;;;42.63;27.13;;;19.20;51.50;;;;;;5072233;28;20445;-75
2021/08/18 07:44:20;;;;;;;40.42;26.88;;;19.30;49.80;;;;;;5071568;28;20722;-76
2021/08/18 07:46:46;;;;;;;37.78;26.52;;;19.30;48.90;;;;;;5072180;28;20484;-77
2021/08/18 07:49:15;;;;;;;36.55;26.60;;;19.30;48.00;;;;;;5071062;28;20406;-76
2021/08/18 07:51:42;;;;;;;37.38;26.67;;;19.30;48.30;;;;;;5074175;28;20729;-75
2021/08/18 07:54:08;;;;;;;42.03;26.63;;;19.40;48.40;;;;;;5068657;28;20401;-76
2021/08/18 07:56:34;;;;;;;40.00;26.55;;;19.40;47.60;;;;;;5060490;28;20403;-77
2021/08/18 07:59:05;;;;;;;39.60;27.13;;;19.50;49.40;;;;;;5073136;28;21038;-76
2021/08/18 08:01:37;;;;;;;35.72;26.30;;;19.80;48.40;;;;;;5073796;28;20469;-77
2021/08/18 08:04:18;;;;;;;41.05;26.30;;;19.90;46.20;;;;;;5075459;28;20390;-76
2021/08/18 08:06:49;;;;;;;38.97;27.38;;;19.90;44.40;;;;;;5075675;28;20989;-77
2021/08/18 08:09:18;;;;;;;38.58;26.90;;;19.80;44.40;;;;;;5071928;28;20393;-77
2021/08/18 08:11:45;;;;;;;34.88;25.38;;;19.80;45.20;;;;;;5070078;28;20729;-76
2021/08/18 08:14:14;;;;;;;39.13;26.02;;;19.70;44.10;;;;;;5078073;28;20459;-75
2021/08/18 08:16:42;;;;;;;37.92;26.73;;;19.70;44.20;;;;;;5070763;28;20401;-78
2021/08/18 08:19:17;;;;;;;36.30;26.02;;;19.80;44.60;;;;;;5054955;28;20381;-77
2021/08/18 08:21:43;;;;;;;35.47;24.52;;;19.90;43.70;;;;;;5065009;28;20391;-77
2021/08/18 08:24:09;;;;;;;37.70;25.67;;;20.10;42.90;;;;;;5071679;28;20729;-75
2021/08/18 08:26:34;;;;;;;31.70;23.92;;;20.20;42.20;;;;;;5071719;28;20387;-77
2021/08/18 08:29:00;;;;;;;31.67;23.00;;;20.40;42.00;;;;;;5070900;28;20528;-77
2021/08/18 08:31:25;;;;;;;31.50;23.50;;;20.60;40.50;;;;;;5071668;28;20402;-75
2021/08/18 08:33:51;;;;;;;33.93;23.53;;;20.60;41.40;;;;;;5071387;28;20528;-77
2021/08/18 08:36:17;;;;;;;32.20;23.23;;;20.60;41.20;;;;;;5070392;28;20801;-76
2021/08/18 08:38:42;;;;;;;26.65;21.50;;;20.40;40.70;;;;;;5069811;28;20430;-76
2021/08/18 08:41:09;;;;;;;31.63;21.00;;;20.20;42.10;;;;;;5072315;28;20395;-76
2021/08/18 08:43:36;;;;;;;27.58;21.60;;;20.10;43.20;;;;;;5071288;28;20775;-75
2021/08/18 08:46:05;;;;;;;25.75;19.80;;;20.30;43.30;;;;;;5071644;28;20392;-75
2021/08/18 08:48:32;;;;;;;27.13;19.90;;;20.40;42.10;;;;;;5070390;28;20403;-77
2021/08/18 08:50:58;;;;;;;29.05;20.50;;;20.30;41.50;;;;;;5071449;28;20387;-77
2021/08/18 08:53:24;;;;;;;26.60;19.40;;;20.20;41.40;;;;;;5071626;28;20895;-76
2021/08/18 08:55:50;;;;;;;27.92;20.50;;;20.10;41.50;;;;;;5071499;28;20410;-76
2021/08/18 08:58:15;;;;;;;29.60;20.08;;;20.10;41.80;;;;;;5071173;28;20438;-76
2021/08/18 09:00:41;;;;;;;24.43;19.60;;;20.10;43.20;;;;;;5069133;28;20436;-77
2021/08/18 09:03:15;;;;;;;26.27;19.43;;;20.00;41.50;;;;;;5071934;28;20385;-77
2021/08/18 09:05:40;;;;;;;24.17;19.42;;;20.10;41.60;;;;;;5076393;28;20445;-79
2021/08/18 09:08:11;;;;;;;23.73;18.00;;;20.10;41.80;;;;;;5060163;28;20401;-74
2021/08/18 09:10:38;;;;;;;24.52;17.83;;;20.10;42.80;;;;;;5065913;28;20838;-73
2021/08/18 09:13:14;;;;;;;21.65;17.80;;;20.00;42.40;;;;;;5069107;28;20392;-73
2021/08/18 09:15:41;;;;;;;20.65;16.90;;;20.00;43.50;;;;;;5069852;28;20434;-73
2021/08/18 09:18:06;;;;;;;21.48;15.80;;;19.80;44.00;;;;;;5069954;28;20441;-72
2021/08/18 09:20:36;;;;;;;19.75;14.30;;;19.70;43.80;;;;;;5070607;28;20392;-74
2021/08/18 09:23:03;;;;;;;16.80;13.23;;;19.80;43.50;;;;;;5070345;28;20380;-73
2021/08/18 09:25:29;;;;;;;15.40;11.70;;;19.70;43.20;;;;;;5070148;28;20392;-74
2021/08/18 09:28:00;;;;;;;14.37;11.67;;;19.80;42.50;;;;;;5073860;28;20832;-73
2021/08/18 09:30:29;;;;;;;13.82;10.60;;;20.00;41.70;;;;;;5073381;28;20498;-73
2021/08/18 09:32:57;;;;;;;12.07;10.63;;;20.10;38.70;;;;;;5063130;28;20390;-74
2021/08/18 09:35:26;;;;;;;12.70;11.30;;;20.30;39.70;;;;;;5073938;28;20395;-73
2021/08/18 09:38:02;;;;;;;11.82;10.63;;;20.50;39.50;;;;;;5073273;28;20419;-75
2021/08/18 09:40:39;;;;;;;10.02;9.00;;;20.70;37.40;;;;;;5073756;28;20396;-74
2021/08/18 09:43:21;;;;;;;12.80;9.25;;;20.70;37.80;;;;;;5073494;28;20394;-74
2021/08/18 09:46:01;;;;;;;11.50;9.13;;;20.90;36.70;;;;;;5073550;28;20418;-74
2021/08/18 09:48:38;;;;;;;10.77;9.18;;;20.80;36.20;;;;;;5073657;28;20372;-74
2021/08/18 09:51:12;;;;;;;11.90;9.00;;;20.80;37.20;;;;;;5072122;28;20395;-75
2021/08/18 09:53:40;;;;;;;9.23;8.32;;;21.00;36.60;;;;;;5071700;28;20380;-73
2021/08/18 09:56:06;;;;;;;10.60;8.20;;;21.20;35.40;;;;;;5065889;28;20396;-73
2021/08/18 09:58:39;;;;;;;9.18;8.05;;;21.40;34.90;;;;;;5072523;28;20399;-73
2021/08/18 10:01:10;;;;;;;13.85;9.82;;;21.60;34.30;;;;;;5073567;28;20916;-72
2021/08/18 10:03:37;;;;;;;7.50;6.70;;;21.60;33.70;;;;;;5072456;28;20422;-72
2021/08/18 10:06:03;;;;;;;9.63;7.57;;;21.40;33.60;;;;;;5072809;28;20388;-73
2021/08/18 10:08:29;;;;;;;7.32;6.63;;;21.30;34.00;;;;;;5067966;28;20396;-72
2021/08/18 10:10:55;;;;;;;8.55;6.57;;;21.00;34.60;;;;;;5056599;28;20391;-74
2021/08/18 10:13:22;;;;;;;6.95;6.25;;;20.90;34.70;;;;;;5072722;28;20402;-73
2021/08/18 10:15:49;;;;;;;6.97;6.28;;;20.90;34.00;;;;;;5071742;28;20449;-73
2021/08/18 10:18:27;;;;;;;6.90;6.20;;;20.90;34.00;;;;;;5069686;28;20516;-73
2021/08/18 10:20:56;;;;;;;6.50;5.80;;;20.90;34.40;;;;;;5073216;28;20740;-74
2021/08/18 10:23:55;;;;;;;6.85;6.15;;;20.90;34.50;;;;;;5068241;28;20381;-74
2021/08/18 10:26:47;;;;;;;8.20;6.20;;;20.90;35.10;;;;;;5053331;28;20877;-75
2021/08/18 10:29:26;;;;;;;8.87;6.37;;;20.90;35.00;;;;;;5043623;28;20401;-74
2021/08/18 10:31:51;;;;;;;6.73;6.03;;;20.80;35.70;;;;;;5052846;28;20870;-74
2021/08/18 10:34:25;;;;;;;7.30;5.80;;;21.10;35.30;;;;;;5053249;28;20397;-74
2021/08/18 10:36:52;;;;;;;6.38;5.10;;;21.30;34.30;;;;;;5071862;28;20556;-73
2021/08/18 10:39:18;;;;;;;5.57;4.90;;;21.50;32.80;;;;;;5061782;28;20754;-75
2021/08/18 10:42:02;;;;;;;5.75;4.40;;;21.90;31.20;;;;;;5056510;28;20407;-74
2021/08/18 10:44:40;;;;;;;4.00;3.70;;;22.00;29.20;;;;;;5072846;28;20811;-74
2021/08/18 10:47:22;;;;;;;4.88;3.42;;;21.90;28.80;;;;;;5071998;28;20494;-74
2021/08/18 10:50:16;;;;;;;3.40;3.20;;;22.20;27.80;;;;;;5071863;28;20414;-75
2021/08/18 10:52:41;;;;;;;4.18;3.78;;;22.30;26.60;;;;;;5030768;28;20397;-73
2021/08/18 10:55:08;;;;;;;3.80;3.50;;;22.40;27.40;;;;;;5059054;28;20931;-76
2021/08/18 10:57:38;;;;;;;3.83;3.50;;;22.70;26.40;;;;;;5088435;28;20408;-77
2021/08/18 11:00:09;;;;;;;5.45;3.60;;;22.80;26.10;;;;;;5073320;28;20418;-78
2021/08/18 11:02:47;;;;;;;4.35;3.80;;;22.70;26.00;;;;;;5073027;28;20765;-77
2021/08/18 11:05:14;;;;;;;3.75;3.45;;;22.50;27.10;;;;;;5072815;28;20398;-76
2021/08/18 11:08:20;;;;;;;3.97;3.67;;;22.30;26.70;;;;;;5071229;28;20959;-77
2021/08/18 11:10:52;;;;;;;3.90;3.60;;;21.90;28.00;;;;;;5003065;28;20449;-77
2021/08/18 11:13:33;;;;;;;4.38;3.97;;;21.70;27.50;;;;;;4991325;28;20386;-78
2021/08/18 11:15:59;;;;;;;3.78;3.47;;;21.50;28.50;;;;;;5038453;28;20400;-77
2021/08/18 11:18:25;;;;;;;4.88;3.90;;;21.30;28.40;;;;;;5072030;28;20718;-78
2021/08/18 11:20:52;;;;;;;5.00;4.17;;;21.20;29.00;;;;;;5072626;28;20796;-77
2021/08/18 11:23:24;;;;;;;5.80;4.20;;;21.10;29.40;;;;;;5072133;28;20430;-77
2021/08/18 11:25:49;;;;;;;4.60;4.20;;;20.90;30.40;;;;;;5087482;28;20425;-76
2021/08/18 11:28:22;;;;;;;4.80;3.90;;;20.90;30.60;;;;;;5071746;28;20391;-75
2021/08/18 11:31:06;;;;;;;5.30;3.88;;;21.10;30.20;;;;;;5072320;28;20396;-77
2021/08/18 11:33:34;;;;;;;3.63;3.33;;;21.40;29.50;;;;;;5071682;28;20847;-76
2021/08/18 11:36:01;;;;;;;3.88;3.50;;;21.40;28.10;;;;;;5072410;28;20376;-76
2021/08/18 11:38:27;;;;;;;4.10;3.70;;;21.50;28.00;;;;;;5070677;28;20434;-77
2021/08/18 11:40:54;;;;;;;6.05;3.80;;;21.50;28.40;;;;;;5071828;28;20843;-76
2021/08/18 11:43:37;;;;;;;7.82;3.80;;;21.50;28.20;;;;;;5071460;28;20445;-75
2021/08/18 11:46:03;;;;;;;5.72;3.70;;;21.40;28.20;;;;;;5073377;28;20850;-77
2021/08/18 11:48:28;;;;;;;3.78;3.10;;;21.20;29.00;;;;;;5052047;28;20456;-76
2021/08/18 11:50:58;;;;;;;4.00;3.38;;;21.00;29.20;;;;;;5051355;28;20378;-75
2021/08/18 11:53:23;;;;;;;7.47;3.30;;;20.90;28.80;;;;;;5070913;28;20453;-77
2021/08/18 11:56:00;;;;;;;4.53;3.47;;;20.70;29.30;;;;;;5071806;28;20407;-77
2021/08/18 11:58:31;;;;;;;3.65;3.33;;;20.80;30.20;;;;;;5071147;28;20513;-77
2021/08/18 12:00:59;;;;;;;4.55;3.90;;;20.90;30.20;;;;;;5072180;28;20789;-78
2021/08/18 12:03:25;;;;;;;4.32;3.97;;;21.00;29.50;;;;;;5070134;28;20391;-77
2021/08/18 12:05:58;;;;;;;4.90;4.40;;;21.10;29.40;;;;;;5071281;28;20860;-77
2021/08/18 12:08:41;;;;;;;7.75;4.90;;;21.30;29.30;;;;;;5070168;28;20399;-77
2021/08/18 12:11:09;;;;;;;5.70;5.20;;;21.30;29.90;;;;;;5070121;28;20392;-78
2021/08/18 12:13:38;;;;;;;5.18;4.68;;;21.50;29.20;;;;;;5070563;28;20395;-77
2021/08/18 12:16:21;;;;;;;5.40;4.90;;;21.60;29.00;;;;;;5070908;28;20379;-76
2021/08/18 12:18:51;;;;;;;9.93;4.97;;;21.80;28.30;;;;;;5069635;28;21559;-77
2021/08/18 12:21:20;;;;;;;8.25;6.25;;;21.90;28.20;;;;;;5072687;28;20380;-77
2021/08/18 12:23:47;;;;;;;8.30;6.30;;;22.10;28.20;;;;;;5071579;28;20403;-77
2021/08/18 12:26:34;;;;;;;8.05;6.45;;;22.30;27.70;;;;;;5071371;28;20388;-77
2021/08/18 12:29:02;;;;;;;7.90;6.90;;;22.60;27.20;;;;;;5072776;28;20380;-76
2021/08/18 12:31:55;;;;;;;13.00;7.50;;;23.00;25.90;;;;;;5054317;28;20439;-77
2021/08/18 12:34:46;;;;;;;9.23;7.80;;;23.10;25.20;;;;;;5057040;28;20931;-77